Time;durP1;ratioP1;P1;durP2;ratioP2;P2;SDS_P1;SDS_P2;PMS_P1;PMS_P2;Temp;Humidity;BMP_temperature;BMP_pressure;BME280_temperature;BME280_humidity;BME280_pressure;Samples;Min_cycle;Max_cycle;Signal;HPM_P1;HPM_P2
2023/02/02 00:01:36;;;;;;;8.02;1.27;;;;;;;3.49;100.00;100198.97;4967869;28;20073;-75
2023/02/02 00:04:02;;;;;;;9.75;0.82;;;;;;;3.54;100.00;100187.69;4987516;28;20058;-75
2023/02/02 00:06:30;;;;;;;7.95;0.98;;;;;;;3.55;100.00;100185.13;4984499;28;20050;-75
2023/02/02 00:08:57;;;;;;;5.80;1.15;;;;;;;3.51;100.00;100185.91;4982491;28;20035;-75
2023/02/02 00:11:23;;;;;;;7.85;1.50;;;;;;;3.42;100.00;100191.88;4991065;28;20438;-76
2023/02/02 00:13:49;;;;;;;5.88;1.33;;;;;;;3.37;100.00;100198.72;4985226;28;20034;-75
2023/02/02 00:16:35;;;;;;;7.32;0.77;;;;;;;3.31;100.00;100198.63;4981642;28;20049;-75
2023/02/02 00:19:06;;;;;;;5.50;1.08;;;;;;;3.25;100.00;100206.38;4988797;28;20039;-75
2023/02/02 00:21:32;;;;;;;2.73;0.60;;;;;;;3.12;100.00;100197.44;4981791;28;20105;-75
2023/02/02 00:23:58;;;;;;;4.40;0.85;;;;;;;3.06;100.00;100195.56;4967426;28;20285;-75
2023/02/02 00:26:23;;;;;;;3.45;1.15;;;;;;;2.97;100.00;100199.75;4981344;28;20034;-75
2023/02/02 00:28:49;;;;;;;4.03;0.80;;;;;;;2.88;100.00;100187.38;4984735;28;20042;-75
2023/02/02 00:31:14;;;;;;;9.88;1.50;;;;;;;2.80;100.00;100191.56;4980737;28;20031;-74
2023/02/02 00:33:47;;;;;;;10.98;1.35;;;;;;;2.81;100.00;100189.00;4980604;28;20034;-75
2023/02/02 00:36:12;;;;;;;7.80;1.55;;;;;;;2.77;100.00;100189.78;4982699;28;20101;-75
2023/02/02 00:38:38;;;;;;;7.68;1.05;;;;;;;2.72;100.00;100188.81;4983075;28;20030;-75
2023/02/02 00:41:04;;;;;;;5.72;1.00;;;;;;;2.72;100.00;100185.34;4983178;28;20078;-75
2023/02/02 00:43:29;;;;;;;13.18;1.40;;;;;;;2.66;100.00;100178.28;4981661;28;20065;-75
2023/02/02 00:45:54;;;;;;;7.15;1.50;;;;;;;2.66;100.00;100173.06;4982890;28;20073;-75
2023/02/02 00:48:20;;;;;;;12.73;1.20;;;;;;;2.66;100.00;100185.22;4983607;28;20078;-76
2023/02/02 00:50:45;;;;;;;7.45;1.20;;;;;;;2.72;100.00;100187.94;4984166;28;20061;-76
2023/02/02 00:53:11;;;;;;;7.20;1.02;;;;;;;2.73;100.00;100176.69;4983710;28;20110;-75
2023/02/02 00:55:36;;;;;;;10.13;1.10;;;;;;;2.69;100.00;100185.28;4984386;28;20129;-76
2023/02/02 00:58:01;;;;;;;7.78;1.75;;;;;;;2.77;100.00;100179.38;4987630;28;20038;-76
2023/02/02 01:00:27;;;;;;;8.07;1.10;;;;;;;2.83;100.00;100183.84;4985885;28;20105;-75
2023/02/02 01:02:54;;;;;;;9.70;1.13;;;;;;;2.81;100.00;100183.81;4984059;28;20027;-75
2023/02/02 01:05:21;;;;;;;7.90;1.42;;;;;;;2.83;100.00;100186.44;4983524;28;20034;-76
2023/02/02 01:07:47;;;;;;;6.05;0.90;;;;;;;2.86;100.00;100183.91;4986197;28;20493;-75
2023/02/02 01:10:15;;;;;;;8.20;1.75;;;;;;;2.90;100.00;100210.91;4989627;28;20033;-75
2023/02/02 01:12:42;;;;;;;7.80;1.00;;;;;;;2.90;100.00;100188.31;4983786;28;20031;-75
2023/02/02 01:15:08;;;;;;;4.05;0.93;;;;;;;2.92;100.00;100188.34;4984484;28;20495;-75
2023/02/02 01:17:34;;;;;;;9.75;0.93;;;;;;;2.94;100.00;100195.34;4984513;28;20044;-75
2023/02/02 01:19:59;;;;;;;14.77;1.50;;;;;;;2.96;100.00;100170.19;4981132;28;20042;-74
2023/02/02 01:22:25;;;;;;;6.70;1.60;;;;;;;2.89;100.00;100163.09;4983453;28;20045;-76
2023/02/02 01:24:50;;;;;;;8.35;1.50;;;;;;;2.96;100.00;100156.25;4972290;28;20034;-75
2023/02/02 01:27:16;;;;;;;8.02;1.02;;;;;;;2.89;100.00;100160.50;4982468;28;20057;-76
2023/02/02 01:29:41;;;;;;;13.43;2.05;;;;;;;2.98;100.00;100163.25;4981268;28;20387;-75
2023/02/02 01:32:07;;;;;;;9.07;1.63;;;;;;;2.99;100.00;100175.47;4972823;28;20041;-75
2023/02/02 01:34:32;;;;;;;9.98;1.42;;;;;;;3.02;100.00;100159.88;4984115;28;20046;-75
2023/02/02 01:36:58;;;;;;;6.00;1.08;;;;;;;3.00;100.00;100165.91;4982142;28;20038;-75
2023/02/02 01:39:23;;;;;;;7.93;1.60;;;;;;;2.99;100.00;100162.44;4982740;28;20030;-75
2023/02/02 01:41:49;;;;;;;6.95;1.23;;;;;;;3.01;100.00;100163.34;4981745;28;20398;-75
2023/02/02 01:44:51;;;;;;;7.18;1.35;;;;;;;3.08;100.00;100154.75;4972842;28;20037;-75
2023/02/02 01:47:18;;;;;;;15.20;1.90;;;;;;;3.07;100.00;100155.63;4985763;28;20046;-75
2023/02/02 01:49:44;;;;;;;10.98;1.80;;;;;;;3.08;100.00;100165.19;4973741;28;20034;-77
2023/02/02 01:52:11;;;;;;;6.03;0.90;;;;;;;3.20;100.00;100155.84;5008731;23;20053;-78
2023/02/02 01:54:40;;;;;;;6.72;0.95;;;;;;;3.18;100.00;100144.50;4999705;28;20048;-78
2023/02/02 01:57:14;;;;;;;7.38;0.98;;;;;;;3.18;100.00;100147.13;4996177;28;20448;-78
2023/02/02 01:59:42;;;;;;;4.82;1.35;;;;;;;3.17;100.00;100148.84;4998926;28;20042;-78
2023/02/02 02:02:07;;;;;;;5.95;1.05;;;;;;;3.21;100.00;100155.84;4995985;28;20093;-79
2023/02/02 02:04:33;;;;;;;9.75;1.25;;;;;;;3.29;99.76;100161.22;5000464;28;20086;-78
2023/02/02 02:07:01;;;;;;;9.32;1.80;;;;;;;3.59;97.83;100160.84;4998067;28;20453;-79
2023/02/02 02:09:27;;;;;;;7.68;1.73;;;;;;;3.85;95.90;100166.50;5000198;28;20567;-78
2023/02/02 02:11:53;;;;;;;10.18;1.55;;;;;;;3.99;94.54;100189.31;4999754;28;20034;-78
2023/02/02 02:17:25;;;;;;;14.68;1.70;;;;;;;4.22;92.35;100198.38;4980915;28;20030;-78
2023/02/02 02:26:34;;;;;;;5.35;1.42;;;;;;;4.37;91.42;100188.09;4979036;28;20053;-77
2023/02/02 02:29:34;;;;;;;8.35;1.30;;;;;;;4.34;91.17;100198.50;4992390;28;20508;-77
2023/02/02 02:32:09;;;;;;;8.48;1.33;;;;;;;4.40;90.35;100182.03;4976467;28;20069;-78
2023/02/02 02:34:44;;;;;;;8.88;1.33;;;;;;;4.38;90.29;100178.53;4996437;28;20556;-78
2023/02/02 02:37:28;;;;;;;12.40;1.63;;;;;;;4.43;89.85;100196.88;4958566;28;20031;-78
2023/02/02 02:40:01;;;;;;;10.63;1.30;;;;;;;4.36;89.70;100191.56;4980826;28;20452;-78
2023/02/02 02:42:29;;;;;;;8.68;1.35;;;;;;;4.46;89.61;100184.75;4983985;28;20046;-78
2023/02/02 02:44:59;;;;;;;10.45;1.77;;;;;;;4.44;89.23;100189.06;4979983;28;20090;-78
2023/02/02 02:47:25;;;;;;;8.93;1.38;;;;;;;4.45;88.71;100182.09;4982276;28;20101;-78
2023/02/02 02:49:50;;;;;;;12.23;1.73;;;;;;;4.46;88.52;100186.50;4983611;28;20112;-78
2023/02/02 02:52:15;;;;;;;10.20;1.33;;;;;;;4.40;88.74;100213.38;4983753;28;20042;-78
2023/02/02 02:54:49;;;;;;;9.00;1.30;;;;;;;4.47;88.31;100175.16;4983357;28;20031;-77
2023/02/02 02:57:40;;;;;;;16.45;1.88;;;;;;;4.51;88.10;100184.81;4985194;28;20113;-78
2023/02/02 03:00:27;;;;;;;9.68;1.63;;;;;;;4.52;88.49;100190.03;5001148;28;20037;-78
2023/02/02 03:03:06;;;;;;;9.35;1.40;;;;;;;4.49;89.15;100191.75;5000733;28;20072;-78
2023/02/02 03:06:05;;;;;;;12.35;2.13;;;;;;;4.44;89.26;100183.84;5003141;28;20549;-77
2023/02/02 03:08:46;;;;;;;5.82;1.42;;;;;;;4.42;88.49;100205.59;5004031;28;20184;-78
2023/02/02 03:11:14;;;;;;;14.25;2.00;;;;;;;4.47;89.40;100194.34;5003775;28;20519;-78
2023/02/02 03:13:40;;;;;;;10.20;1.85;;;;;;;4.47;89.36;100194.34;5004693;28;20042;-77
2023/02/02 03:16:06;;;;;;;10.60;1.38;;;;;;;4.43;89.99;100213.47;5003424;28;20712;-77
2023/02/02 03:18:32;;;;;;;8.23;1.48;;;;;;;4.44;89.97;100214.31;5003467;28;20034;-78
2023/02/02 03:20:58;;;;;;;12.68;1.67;;;;;;;4.51;89.08;100219.66;5003747;28;20057;-78
2023/02/02 03:23:23;;;;;;;10.13;1.20;;;;;;;4.54;88.72;100222.31;5003380;28;20108;-78
2023/02/02 03:25:48;;;;;;;8.48;1.33;;;;;;;4.55;89.38;100215.34;5003073;28;20046;-78
2023/02/02 03:28:15;;;;;;;7.60;1.60;;;;;;;4.52;90.29;100212.69;5003715;28;20037;-78
2023/02/02 03:30:42;;;;;;;10.40;1.58;;;;;;;4.46;91.05;100207.41;5003474;28;20500;-78
2023/02/02 03:33:09;;;;;;;9.70;1.85;;;;;;;4.42;91.01;100223.88;5001795;28;20038;-78
2023/02/02 03:35:35;;;;;;;7.82;1.33;;;;;;;4.46;90.24;100208.25;4999146;28;20041;-77
2023/02/02 03:38:00;;;;;;;11.02;2.00;;;;;;;4.49;89.63;100208.31;5004570;28;20034;-78
2023/02/02 03:40:27;;;;;;;7.93;1.52;;;;;;;4.51;88.94;100222.28;5002301;28;20034;-77
2023/02/02 03:42:52;;;;;;;13.63;1.45;;;;;;;4.54;89.92;100218.81;4985131;28;20400;-77
2023/02/02 03:45:18;;;;;;;10.38;1.73;;;;;;;4.57;89.65;100218.84;4996811;28;20117;-77
2023/02/02 03:47:43;;;;;;;9.48;1.23;;;;;;;4.57;89.30;100217.13;4999877;28;20030;-77
2023/02/02 03:50:09;;;;;;;12.48;1.75;;;;;;;4.55;90.44;100223.19;5000996;28;20077;-77
2023/02/02 03:52:34;;;;;;;5.88;1.05;;;;;;;4.54;90.08;100226.66;5001020;28;20049;-77
2023/02/02 03:55:00;;;;;;;8.38;1.80;;;;;;;4.49;90.42;100223.97;5000252;28;20042;-77
2023/02/02 03:57:25;;;;;;;11.98;1.65;;;;;;;4.53;90.71;100237.97;4982794;28;20127;-77
2023/02/02 03:59:51;;;;;;;11.88;1.52;;;;;;;4.53;91.34;100237.97;4999786;28;20087;-77
2023/02/02 04:02:16;;;;;;;11.98;1.38;;;;;;;4.43;92.64;100223.91;4996026;28;20034;-77
2023/02/02 04:04:41;;;;;;;8.52;1.23;;;;;;;4.43;91.65;100230.84;4999535;28;20098;-77
2023/02/02 04:07:07;;;;;;;8.98;1.02;;;;;;;4.36;92.47;100237.72;4999433;28;20173;-77
2023/02/02 04:09:32;;;;;;;11.25;1.70;;;;;;;4.40;92.53;100223.84;4999324;28;20049;-78
2023/02/02 04:11:57;;;;;;;10.63;1.40;;;;;;;4.45;91.58;100226.53;5000390;28;20042;-77
2023/02/02 04:14:22;;;;;;;17.95;1.58;;;;;;;4.48;90.99;100237.00;4999223;28;20038;-76
2023/02/02 04:16:48;;;;;;;9.13;1.50;;;;;;;4.56;90.59;100238.91;4996069;28;20049;-77
2023/02/02 04:19:13;;;;;;;8.05;1.10;;;;;;;4.59;90.57;100249.38;4999639;28;20030;-77
2023/02/02 04:21:39;;;;;;;9.85;2.30;;;;;;;4.59;90.79;100248.50;4999532;28;20038;-77
2023/02/02 04:24:06;;;;;;;7.95;1.48;;;;;;;4.53;91.63;100231.03;4999844;28;20022;-77
2023/02/02 04:26:31;;;;;;;11.02;1.75;;;;;;;4.61;90.58;100265.06;4999534;28;20038;-77
2023/02/02 04:28:57;;;;;;;9.88;1.23;;;;;;;4.66;90.20;100247.72;5000229;28;20042;-77
2023/02/02 04:31:22;;;;;;;13.45;1.50;;;;;;;4.70;90.19;100259.97;4999750;28;20053;-77
2023/02/02 04:33:48;;;;;;;13.30;1.33;;;;;;;4.68;90.45;100243.38;4999237;28;20074;-77
2023/02/02 04:36:13;;;;;;;9.90;1.77;;;;;;;4.67;90.85;100264.31;4998487;28;20038;-77
2023/02/02 04:38:39;;;;;;;16.45;2.35;;;;;;;4.68;91.20;100256.47;4999276;28;20030;-77
2023/02/02 04:41:06;;;;;;;15.32;1.75;;;;;;;4.69;91.26;100258.25;4997778;28;20092;-77
2023/02/02 04:43:36;;;;;;;9.43;1.27;;;;;;;4.66;92.68;100289.53;4998433;28;20035;-77
2023/02/02 04:46:02;;;;;;;12.95;1.35;;;;;;;4.56;93.48;100299.00;4995277;28;20034;-76
2023/02/02 04:48:28;;;;;;;16.35;1.92;;;;;;;4.49;94.73;100267.53;4997486;28;20512;-77
2023/02/02 04:51:05;;;;;;;9.43;1.63;;;;;;;4.43;95.96;100280.50;4994275;28;20126;-76
2023/02/02 04:53:31;;;;;;;9.18;2.13;;;;;;;4.39;95.74;100283.06;4993548;28;20062;-78
2023/02/02 04:55:56;;;;;;;17.65;1.63;;;;;;;4.39;97.16;100290.91;4998674;28;20221;-77
2023/02/02 04:58:22;;;;;;;8.10;1.27;;;;;;;4.43;96.41;100270.94;4997948;28;20038;-77
2023/02/02 05:00:47;;;;;;;7.57;1.38;;;;;;;4.42;96.76;100269.16;4994065;28;20105;-78
2023/02/02 05:03:12;;;;;;;11.02;1.17;;;;;;;4.41;98.31;100271.78;4993362;28;20029;-78
2023/02/02 05:05:38;;;;;;;9.43;1.52;;;;;;;4.37;98.67;100296.97;4983639;28;20030;-78
2023/02/02 05:08:03;;;;;;;8.60;1.83;;;;;;;4.34;99.36;100302.16;4999556;28;20081;-78
2023/02/02 05:10:29;;;;;;;10.38;1.60;;;;;;;4.27;100.00;100287.22;4983765;28;20042;-78
2023/02/02 05:12:55;;;;;;;10.95;1.75;;;;;;;4.30;100.00;100309.06;4983675;28;20105;-76
2023/02/02 05:15:21;;;;;;;16.42;1.83;;;;;;;4.38;99.11;100294.38;4999298;28;20037;-78
2023/02/02 05:17:47;;;;;;;8.50;1.40;;;;;;;4.47;97.25;100304.09;4998382;28;20038;-77
2023/02/02 05:20:13;;;;;;;19.08;2.08;;;;;;;4.54;97.81;100299.84;4996563;28;20045;-78
2023/02/02 05:22:38;;;;;;;12.57;1.90;;;;;;;4.58;96.41;100306.84;4997238;28;20038;-77
2023/02/02 05:25:05;;;;;;;18.67;2.83;;;;;;;4.72;95.91;100305.34;5000509;28;20049;-77
2023/02/02 05:27:31;;;;;;;13.10;1.80;;;;;;;4.77;94.73;100313.25;4999964;28;20052;-77
2023/02/02 05:29:56;;;;;;;10.25;2.00;;;;;;;4.83;94.47;100308.09;5000391;28;20034;-77
2023/02/02 05:32:22;;;;;;;13.13;1.58;;;;;;;4.85;94.64;100316.84;4996889;28;20034;-78
2023/02/02 05:34:47;;;;;;;10.00;1.67;;;;;;;4.83;94.74;100303.72;4982058;28;20057;-77
2023/02/02 05:37:12;;;;;;;6.90;1.45;;;;;;;4.89;94.61;100317.75;5000011;28;20034;-77
2023/02/02 05:39:38;;;;;;;12.65;2.00;;;;;;;4.80;96.08;100315.91;4993880;28;20030;-77
2023/02/02 05:42:03;;;;;;;8.35;1.35;;;;;;;4.68;97.23;100326.19;4975681;28;20034;-77
2023/02/02 05:44:29;;;;;;;10.15;1.63;;;;;;;4.55;98.70;100323.38;4995820;28;20496;-77
2023/02/02 05:46:54;;;;;;;13.25;1.80;;;;;;;4.50;99.37;100339.84;4994676;28;20065;-77
2023/02/02 05:49:19;;;;;;;14.27;1.85;;;;;;;4.49;98.70;100325.91;4998973;28;20048;-77
2023/02/02 05:51:52;;;;;;;11.30;2.35;;;;;;;4.47;98.58;100324.13;4995630;28;20034;-77
2023/02/02 05:54:19;;;;;;;10.85;1.73;;;;;;;4.56;98.08;100326.88;4997833;28;20500;-77
2023/02/02 05:56:49;;;;;;;12.65;2.05;;;;;;;4.66;97.00;100362.72;4998666;28;20030;-78
2023/02/02 05:59:16;;;;;;;15.13;1.70;;;;;;;4.72;96.74;100341.94;4998228;28;20157;-77
2023/02/02 06:01:42;;;;;;;12.90;1.65;;;;;;;4.74;95.96;100344.56;4996612;28;20042;-77
2023/02/02 06:04:07;;;;;;;10.45;1.60;;;;;;;4.74;96.92;100344.56;4998908;28;20030;-77
2023/02/02 06:06:34;;;;;;;10.95;2.03;;;;;;;4.72;98.05;100344.53;4998900;28;20099;-77
2023/02/02 06:09:00;;;;;;;11.95;1.52;;;;;;;4.61;99.29;100372.25;4999291;28;20043;-76
2023/02/02 06:11:25;;;;;;;8.85;1.38;;;;;;;4.60;99.73;100373.97;4997631;28;20034;-77
2023/02/02 06:13:51;;;;;;;16.30;1.77;;;;;;;4.63;99.57;100357.47;4999296;28;20034;-78
2023/02/02 06:16:16;;;;;;;11.85;1.50;;;;;;;4.61;99.70;100375.75;4981680;28;20042;-77
2023/02/02 06:18:41;;;;;;;20.98;2.40;;;;;;;4.63;99.97;100377.50;4998709;28;20034;-77
2023/02/02 06:21:07;;;;;;;8.32;1.30;;;;;;;4.67;99.28;100374.09;4999766;28;20042;-77
2023/02/02 06:23:33;;;;;;;9.07;1.80;;;;;;;4.71;99.98;100376.75;4999880;28;20129;-77
2023/02/02 06:25:59;;;;;;;9.45;1.67;;;;;;;4.70;100.00;100406.38;4999234;28;20094;-77
2023/02/02 06:28:24;;;;;;;9.05;1.38;;;;;;;4.68;100.00;100379.34;4982211;28;20034;-77
2023/02/02 06:30:50;;;;;;;8.82;1.42;;;;;;;4.66;100.00;100373.19;4996606;28;20044;-77
2023/02/02 06:33:15;;;;;;;8.95;1.88;;;;;;;4.69;100.00;100409.88;5000466;28;20035;-77
2023/02/02 06:35:41;;;;;;;10.85;1.63;;;;;;;4.69;100.00;100393.28;5002703;28;20046;-77
2023/02/02 06:38:06;;;;;;;12.30;1.85;;;;;;;4.75;100.00;100391.66;4985537;28;20034;-77
2023/02/02 06:40:31;;;;;;;9.20;1.35;;;;;;;4.80;99.94;100438.78;5002660;28;20096;-77
2023/02/02 06:42:59;;;;;;;7.45;1.55;;;;;;;4.75;100.00;100389.03;5003109;28;20393;-78
2023/02/02 06:45:25;;;;;;;10.60;1.48;;;;;;;4.79;99.49;100422.22;5002325;28;20468;-77
2023/02/02 06:47:51;;;;;;;13.32;1.80;;;;;;;4.84;98.30;100424.88;5002787;28;20038;-77
2023/02/02 06:50:16;;;;;;;11.10;1.90;;;;;;;4.89;97.70;100422.34;5002655;28;20955;-77
2023/02/02 06:52:52;;;;;;;9.40;1.55;;;;;;;4.89;96.74;100425.84;5003334;28;20038;-77
2023/02/02 06:55:17;;;;;;;10.30;1.80;;;;;;;4.79;96.84;100440.53;5000947;28;20463;-77
2023/02/02 06:57:43;;;;;;;12.05;1.35;;;;;;;4.76;97.01;100445.69;5002362;28;20155;-77
2023/02/02 07:00:09;;;;;;;10.52;1.48;;;;;;;4.83;96.58;100418.78;4984585;28;20057;-77
2023/02/02 07:02:35;;;;;;;10.75;1.83;;;;;;;4.82;97.54;100431.81;5001355;28;20040;-77
2023/02/02 07:05:00;;;;;;;7.80;1.33;;;;;;;4.84;97.96;100451.03;5003737;28;20102;-77
2023/02/02 07:07:26;;;;;;;8.95;1.33;;;;;;;4.78;98.84;100448.34;5001160;28;20037;-77
2023/02/02 07:09:52;;;;;;;12.75;1.30;;;;;;;4.69;100.00;100456.91;5003485;28;20588;-78
2023/02/02 07:12:18;;;;;;;15.43;1.80;;;;;;;4.64;100.00;100481.19;5002043;28;20034;-78
2023/02/02 07:14:44;;;;;;;8.85;1.67;;;;;;;4.51;100.00;100454.00;5002787;28;20042;-77
2023/02/02 07:17:09;;;;;;;7.60;1.75;;;;;;;4.48;100.00;100465.28;5001959;28;20406;-77
2023/02/02 07:19:34;;;;;;;10.77;2.00;;;;;;;4.50;100.00;100460.94;5001056;28;20101;-77
2023/02/02 07:22:00;;;;;;;8.15;1.42;;;;;;;4.47;100.00;100476.56;5002209;28;20034;-77
2023/02/02 07:24:26;;;;;;;8.40;2.13;;;;;;;4.42;100.00;100486.06;5001726;28;20030;-77
2023/02/02 07:26:51;;;;;;;10.50;2.05;;;;;;;4.32;100.00;100482.41;5001081;28;20038;-78
2023/02/02 07:29:17;;;;;;;11.90;2.08;;;;;;;4.31;100.00;100478.03;4983908;28;20049;-77
2023/02/02 07:31:42;;;;;;;15.30;1.15;;;;;;;4.31;100.00;100475.41;4997759;28;20071;-77
2023/02/02 07:34:07;;;;;;;7.35;1.40;;;;;;;4.37;100.00;100483.34;5001924;28;20038;-78
2023/02/02 07:36:33;;;;;;;8.02;1.67;;;;;;;4.38;100.00;100485.13;4983326;28;20035;-77
2023/02/02 07:39:02;;;;;;;15.32;2.00;;;;;;;4.49;100.00;100487.06;5002083;28;20037;-78
2023/02/02 07:41:28;;;;;;;10.10;1.20;;;;;;;4.51;100.00;100486.22;4997192;28;20049;-78
2023/02/02 07:43:53;;;;;;;8.80;1.23;;;;;;;4.58;100.00;100485.50;5000625;28;20030;-77
2023/02/02 07:46:19;;;;;;;10.20;1.88;;;;;;;4.62;100.00;100496.88;5000653;28;20030;-77
2023/02/02 07:48:45;;;;;;;12.90;1.17;;;;;;;4.68;100.00;100489.13;5001129;28;20488;-77
2023/02/02 07:51:13;;;;;;;15.85;1.70;;;;;;;4.71;100.00;100498.75;5001827;28;20041;-77
2023/02/02 07:53:42;;;;;;;8.65;1.83;;;;;;;4.78;100.00;100484.94;5016116;22;20582;-73
2023/02/02 07:56:19;;;;;;;16.30;1.90;;;;;;;4.86;100.00;100483.31;5003470;28;20916;-73
2023/02/02 07:58:44;;;;;;;14.63;1.83;;;;;;;4.90;100.00;100503.47;5007182;28;20412;-73
2023/02/02 08:01:13;;;;;;;10.25;2.03;;;;;;;4.89;100.00;100500.81;5004797;28;20053;-74
2023/02/02 08:03:39;;;;;;;13.48;1.73;;;;;;;4.86;100.00;100506.88;5005297;28;20034;-73
2023/02/02 08:06:13;;;;;;;11.30;1.60;;;;;;;4.95;100.00;100521.81;5004880;28;20038;-73
2023/02/02 08:08:39;;;;;;;11.93;1.08;;;;;;;4.96;100.00;100502.69;5008816;28;20042;-73
2023/02/02 08:11:08;;;;;;;14.68;3.03;;;;;;;5.02;99.37;100513.22;5007231;28;20038;-73
2023/02/02 08:13:33;;;;;;;12.52;1.35;;;;;;;5.09;97.93;100515.09;5008843;28;20041;-73
2023/02/02 08:15:58;;;;;;;9.32;1.60;;;;;;;5.04;97.98;100529.84;5001621;28;20041;-73
2023/02/02 08:18:24;;;;;;;5.47;1.85;;;;;;;5.05;97.63;100510.66;5010282;28;20037;-73
2023/02/02 08:20:51;;;;;;;15.38;2.00;;;;;;;5.15;97.09;100523.03;5000821;28;20102;-73
2023/02/02 08:23:17;;;;;;;10.95;1.00;;;;;;;5.19;96.36;100526.59;5005609;28;20515;-73
2023/02/02 08:25:42;;;;;;;9.90;2.03;;;;;;;5.23;95.81;100558.03;5011165;28;20180;-73
2023/02/02 08:28:08;;;;;;;11.40;1.95;;;;;;;5.28;95.62;100535.44;5008542;28;20153;-73
2023/02/02 08:30:34;;;;;;;17.75;1.77;;;;;;;5.30;95.39;100537.22;5004812;28;20112;-73
2023/02/02 08:32:59;;;;;;;9.15;1.73;;;;;;;5.35;94.69;100546.03;5004720;28;20400;-73
2023/02/02 08:35:24;;;;;;;10.63;1.85;;;;;;;5.42;94.49;100526.91;5010783;28;20033;-73
2023/02/02 08:37:50;;;;;;;9.63;1.55;;;;;;;5.46;94.66;100542.69;5005314;28;20129;-73
2023/02/02 08:40:15;;;;;;;6.75;1.17;;;;;;;5.42;95.03;100534.75;5004978;28;20117;-73
2023/02/02 08:42:42;;;;;;;11.27;1.60;;;;;;;5.32;96.45;100553.81;5005961;28;20501;-73
2023/02/02 08:45:07;;;;;;;13.85;1.80;;;;;;;5.31;97.55;100546.81;5002303;28;20073;-73
2023/02/02 08:47:33;;;;;;;6.72;1.15;;;;;;;5.37;95.65;100545.19;5012129;28;20061;-73
2023/02/02 08:49:58;;;;;;;9.85;3.80;;;;;;;5.42;95.38;100548.75;5001288;28;20031;-73
2023/02/02 08:52:23;;;;;;;8.20;1.20;;;;;;;5.41;94.91;100582.75;5003568;28;20037;-73
2023/02/02 08:54:49;;;;;;;11.93;1.20;;;;;;;5.47;94.78;100554.91;5004962;28;20040;-73
2023/02/02 08:57:14;;;;;;;11.55;1.90;;;;;;;5.41;94.90;100577.50;5002419;28;20041;-73
2023/02/02 08:59:39;;;;;;;8.77;1.42;;;;;;;5.45;94.30;100561.00;5002709;28;20037;-73
2023/02/02 09:02:05;;;;;;;12.00;1.20;;;;;;;5.51;94.10;100560.22;5002489;28;20045;-73
2023/02/02 09:04:30;;;;;;;13.38;2.15;;;;;;;5.63;93.54;100566.53;5009263;28;20121;-73
2023/02/02 09:06:55;;;;;;;7.22;1.35;;;;;;;5.64;92.69;100568.25;5006086;28;20088;-73
2023/02/02 09:09:21;;;;;;;8.88;1.48;;;;;;;5.67;93.04;100568.31;5002810;28;20045;-73
2023/02/02 09:11:46;;;;;;;7.18;1.42;;;;;;;5.68;93.37;100593.63;5001847;28;20042;-73
2023/02/02 09:14:13;;;;;;;14.57;1.98;;;;;;;5.68;93.22;100575.28;5002844;28;20026;-73
2023/02/02 09:16:38;;;;;;;12.73;1.55;;;;;;;5.69;91.77;100587.53;5004205;28;20042;-73
2023/02/02 09:19:04;;;;;;;12.50;2.20;;;;;;;5.77;91.18;100610.34;5006377;28;20036;-73
2023/02/02 09:21:29;;;;;;;12.45;2.30;;;;;;;5.80;91.02;100584.19;5004905;28;20042;-73
2023/02/02 09:23:55;;;;;;;5.00;1.10;;;;;;;5.79;90.86;100598.13;5009014;28;20042;-73
2023/02/02 09:26:23;;;;;;;11.57;1.67;;;;;;;5.84;90.67;100633.13;5001527;28;20070;-73
2023/02/02 09:28:52;;;;;;;9.60;1.80;;;;;;;5.85;91.09;100611.34;5002931;28;20460;-73
2023/02/02 09:31:17;;;;;;;9.45;1.48;;;;;;;5.97;90.38;100597.56;5005994;28;20121;-73
2023/02/02 09:33:43;;;;;;;12.73;1.17;;;;;;;5.97;89.96;100649.94;5006725;28;20116;-73
2023/02/02 09:36:12;;;;;;;8.80;1.63;;;;;;;5.99;89.76;100609.81;5000084;28;20030;-73
2023/02/02 09:38:38;;;;;;;9.18;1.17;;;;;;;6.01;91.07;100613.34;5004213;28;20092;-73
2023/02/02 09:41:28;;;;;;;9.20;1.27;;;;;;;5.96;91.08;100620.25;4999857;28;20552;-73
2023/02/02 09:44:27;;;;;;;15.68;1.80;;;;;;;6.00;89.82;100623.78;5000256;28;20042;-73
2023/02/02 09:47:20;;;;;;;10.25;1.00;;;;;;;5.88;90.67;100629.72;5004673;28;20045;-73
2023/02/02 09:50:04;;;;;;;9.18;1.35;;;;;;;5.87;90.55;100614.88;5002564;28;20512;-73
2023/02/02 09:52:41;;;;;;;7.63;1.33;;;;;;;5.80;90.73;100637.47;5005294;28;20042;-73
2023/02/02 09:55:18;;;;;;;8.38;1.30;;;;;;;5.75;90.97;100644.38;5001225;28;20034;-73
2023/02/02 09:57:48;;;;;;;11.48;1.80;;;;;;;5.81;90.59;100641.81;5003086;28;20030;-73
2023/02/02 10:00:37;;;;;;;7.32;0.90;;;;;;;5.84;90.68;100643.59;5010201;28;20065;-73
2023/02/02 10:03:14;;;;;;;12.77;1.20;;;;;;;5.91;90.08;100650.72;5001238;28;20029;-73
2023/02/02 10:05:53;;;;;;;12.73;1.60;;;;;;;5.95;91.34;100647.31;5002609;28;20396;-73
2023/02/02 10:08:35;;;;;;;11.13;1.60;;;;;;;5.86;94.87;100639.28;5004797;28;20505;-73
2023/02/02 10:11:14;;;;;;;7.97;1.20;;;;;;;5.53;100.00;100648.41;5006059;28;20119;-73
2023/02/02 10:13:42;;;;;;;8.27;1.00;;;;;;;5.27;100.00;100643.59;5012340;28;20292;-73
2023/02/02 10:16:16;;;;;;;7.70;1.25;;;;;;;5.28;100.00;100647.97;5009837;28;20096;-73
2023/02/02 10:18:58;;;;;;;11.25;2.05;;;;;;;5.38;100.00;100648.13;5012030;28;20041;-73
2023/02/02 10:21:33;;;;;;;7.57;1.52;;;;;;;5.42;100.00;100653.47;5009127;28;20042;-73
2023/02/02 10:24:01;;;;;;;10.27;2.15;;;;;;;5.59;100.00;100642.38;5003608;28;20395;-73
2023/02/02 10:26:44;;;;;;;9.77;1.60;;;;;;;5.71;99.77;100643.44;5002685;28;20177;-73
2023/02/02 10:29:14;;;;;;;;;;;;;;;5.83;98.32;100662.81;5011245;28;20046;-73
2023/02/02 10:31:52;;;;;;;11.50;1.17;;;;;;;5.80;96.02;100647.06;5003999;28;20276;-73
2023/02/02 10:34:39;;;;;;;8.10;1.70;;;;;;;5.80;96.51;100671.50;5008863;28;20038;-73
2023/02/02 10:37:14;;;;;;;11.95;2.88;;;;;;;5.92;96.91;100649.84;5007922;28;20050;-73
2023/02/02 10:39:57;;;;;;;9.75;1.63;;;;;;;6.03;95.54;100666.66;5005363;28;20481;-73
2023/02/02 10:43:44;;;;;;;8.85;1.38;;;;;;;6.17;95.76;100645.88;5006456;28;20065;-74
2023/02/02 10:45:39;;;;;;;9.45;1.48;;;;;;;6.26;93.96;100655.59;5009552;28;20030;-73
2023/02/02 10:48:14;;;;;;;8.32;0.98;;;;;;;6.24;96.53;100662.56;5007219;28;20117;-73
2023/02/02 10:50:42;;;;;;;11.10;1.55;;;;;;;6.17;96.21;100647.63;5003316;28;20038;-73
2023/02/02 10:53:13;;;;;;;16.30;1.77;;;;;;;6.22;96.01;100662.53;5008290;28;20500;-73
2023/02/02 10:55:44;;;;;;;13.63;1.95;;;;;;;6.15;97.26;100655.44;5008044;28;20042;-73
2023/02/02 10:58:10;;;;;;;7.22;1.52;;;;;;;6.09;98.32;100678.97;5005681;28;20059;-73
2023/02/02 11:00:49;;;;;;;9.25;1.17;;;;;;;5.73;100.00;100687.97;5003565;28;20034;-73
2023/02/02 11:03:18;;;;;;;5.85;1.10;;;;;;;5.33;100.00;100686.44;5002683;28;20025;-73
2023/02/02 11:08:37;;;;;;;7.80;1.58;;;;;;;5.26;100.00;100662.75;5002527;28;20045;-74
2023/02/02 11:11:25;;;;;;;15.35;1.95;;;;;;;5.48;100.00;100668.38;5004697;28;20492;-73
2023/02/02 11:14:17;;;;;;;10.77;1.40;;;;;;;5.47;100.00;100663.97;5008565;28;20038;-73
2023/02/02 11:16:44;;;;;;;13.20;2.55;;;;;;;5.50;100.00;100690.19;5003160;28;20061;-73
2023/02/02 11:19:15;;;;;;;10.25;1.83;;;;;;;5.45;100.00;100681.41;5013539;28;20155;-73
2023/02/02 11:21:45;;;;;;;9.95;2.33;;;;;;;5.42;100.00;100681.34;5004724;28;20160;-73
2023/02/02 11:24:35;;;;;;;14.32;2.50;;;;;;;5.50;100.00;100674.50;5005812;28;20042;-72
2023/02/02 11:27:16;;;;;;;9.25;1.85;;;;;;;5.57;100.00;100685.97;5006055;28;20046;-73
2023/02/02 11:29:46;;;;;;;10.65;1.52;;;;;;;5.69;100.00;100671.34;5005612;28;20041;-73
2023/02/02 11:32:31;;;;;;;9.68;1.40;;;;;;;5.67;100.00;100683.53;5002720;28;20570;-73
2023/02/02 11:35:03;;;;;;;9.85;1.90;;;;;;;5.59;100.00;100697.34;5009165;28;20021;-72
2023/02/02 11:37:50;;;;;;;12.15;2.83;;;;;;;5.76;100.00;100687.13;5005468;28;20045;-73
2023/02/02 11:40:22;;;;;;;9.20;1.58;;;;;;;5.96;100.00;100696.22;5004361;28;20072;-73
2023/02/02 11:42:50;;;;;;;8.90;1.55;;;;;;;6.15;99.02;100693.00;5009881;28;20503;-73
2023/02/02 11:45:18;;;;;;;8.27;1.25;;;;;;;6.29;97.07;100682.75;5008164;28;20542;-73
2023/02/02 11:47:45;;;;;;;11.05;1.80;;;;;;;6.30;94.52;100708.09;5012568;28;20068;-72